createdAt,value
2018-04-17T00:01:15.548Z,7.80
2018-04-17T00:03:43.741Z,7.80
2018-04-17T00:06:11.177Z,7.80
2018-04-17T00:08:39.426Z,7.80
2018-04-17T00:11:07.646Z,7.70
2018-04-17T00:13:35.073Z,7.70
2018-04-17T00:16:03.287Z,7.60
2018-04-17T00:18:30.700Z,7.60
2018-04-17T00:20:58.907Z,7.50
2018-04-17T00:23:26.338Z,7.50
2018-04-17T00:25:54.546Z,7.50
2018-04-17T00:28:21.961Z,7.50
2018-04-17T00:30:50.173Z,7.60
2018-04-17T00:33:17.602Z,7.50
2018-04-17T00:35:45.804Z,7.60
2018-04-17T00:38:13.232Z,7.60
2018-04-17T00:40:40.670Z,7.50
2018-04-17T00:43:08.088Z,7.40
2018-04-17T00:45:35.523Z,7.30
2018-04-17T00:48:02.971Z,7.30
2018-04-17T00:50:30.422Z,7.30
2018-04-17T00:52:58.588Z,7.20
2018-04-17T00:55:26.047Z,7.10
2018-04-17T00:57:53.476Z,7.10
2018-04-17T01:00:21.664Z,6.90
2018-04-17T01:02:49.869Z,6.90
2018-04-17T01:05:17.337Z,6.80
2018-04-17T01:07:44.780Z,6.90
2018-04-17T01:10:12.201Z,6.80
2018-04-17T01:12:40.407Z,6.70
2018-04-17T01:15:07.836Z,6.70
2018-04-17T01:17:36.034Z,6.70
2018-04-17T01:20:03.459Z,6.60
2018-04-17T01:22:31.666Z,6.60
2018-04-17T01:24:59.096Z,6.60
2018-04-17T01:27:26.530Z,6.60
2018-04-17T01:29:53.965Z,6.50
2018-04-17T01:32:21.407Z,6.50
2018-04-17T01:34:48.856Z,6.50
2018-04-17T01:37:16.295Z,6.50
2018-04-17T01:39:43.716Z,6.40
2018-04-17T01:42:11.923Z,6.30
2018-04-17T01:44:39.354Z,6.30
2018-04-17T01:47:06.800Z,6.40
2018-04-17T01:49:35.014Z,6.30
2018-04-17T01:52:02.481Z,6.30
2018-04-17T01:54:29.920Z,6.30
2018-04-17T01:56:57.352Z,6.30
2018-04-17T01:59:24.785Z,6.30
2018-04-17T02:01:52.234Z,6.20
2018-04-17T02:04:20.057Z,6.20
2018-04-17T02:06:47.472Z,6.20
2018-04-17T02:09:15.664Z,6.10
2018-04-17T02:11:43.096Z,6.10
2018-04-17T02:14:11.292Z,6.10
2018-04-17T02:16:38.725Z,6.00
2018-04-17T02:19:06.924Z,6.00
2018-04-17T02:21:34.389Z,6.00
2018-04-17T02:24:01.826Z,6.00
2018-04-17T02:26:29.266Z,6.00
2018-04-17T02:28:57.464Z,6.00
2018-04-17T02:31:24.897Z,5.90
2018-04-17T02:33:53.088Z,5.90
2018-04-17T02:36:20.525Z,5.90
2018-04-17T02:38:48.737Z,5.80
2018-04-17T02:41:16.165Z,5.80
2018-04-17T02:43:44.371Z,5.80
2018-04-17T02:46:11.793Z,5.80
2018-04-17T02:48:39.229Z,5.80
2018-04-17T02:51:07.420Z,5.80
2018-04-17T02:53:34.861Z,5.80
2018-04-17T02:56:02.289Z,5.80
2018-04-17T02:58:29.728Z,5.80
2018-04-17T03:00:57.152Z,5.80
2018-04-17T03:03:24.587Z,5.80
2018-04-17T03:05:52.799Z,5.70
2018-04-17T03:08:20.247Z,5.70
2018-04-17T03:10:47.674Z,5.70
2018-04-17T03:13:15.870Z,5.60
2018-04-17T03:15:43.302Z,5.60
2018-04-17T03:18:12.056Z,5.60
2018-04-17T03:20:39.478Z,5.60
2018-04-17T03:23:06.935Z,5.60
2018-04-17T03:25:34.353Z,5.50
2018-04-17T03:28:02.567Z,5.50
2018-04-17T03:30:30.000Z,5.50
2018-04-17T03:32:57.489Z,5.50
2018-04-17T03:35:24.944Z,5.40
2018-04-17T03:37:52.380Z,5.40
2018-04-17T03:40:19.809Z,5.40
2018-04-17T03:42:48.011Z,5.30
2018-04-17T03:45:15.432Z,5.30
2018-04-17T03:47:43.646Z,5.30
2018-04-17T03:50:11.069Z,5.30
2018-04-17T03:52:38.504Z,5.30
2018-04-17T03:55:06.738Z,5.20
2018-04-17T03:57:34.162Z,5.20
2018-04-17T04:00:01.588Z,5.20
2018-04-17T04:02:29.033Z,5.20
2018-04-17T04:04:56.452Z,5.30
2018-04-17T04:07:23.884Z,5.30
2018-04-17T04:09:51.313Z,5.20
2018-04-17T04:12:19.512Z,5.20
2018-04-17T04:14:46.944Z,5.20
2018-04-17T04:17:26.955Z,5.20
2018-04-17T04:20:06.384Z,5.10
2018-04-17T04:22:45.865Z,5.20
2018-04-17T04:25:26.021Z,5.20
2018-04-17T04:27:54.254Z,5.20
2018-04-17T04:30:21.682Z,5.20
2018-04-17T04:32:49.112Z,5.20
2018-04-17T04:35:17.309Z,5.20
2018-04-17T04:37:44.733Z,5.20
2018-04-17T04:40:12.174Z,5.20
2018-04-17T04:42:39.613Z,5.30
2018-04-17T04:45:07.049Z,5.30
2018-04-17T04:47:34.490Z,5.40
2018-04-17T04:50:02.258Z,5.50
2018-04-17T04:52:29.683Z,5.60
2018-04-17T04:54:57.897Z,5.70
2018-04-17T04:57:25.316Z,5.70
2018-04-17T04:59:52.763Z,5.80
2018-04-17T05:02:20.952Z,6.00
2018-04-17T05:04:48.440Z,6.00
2018-04-17T05:07:16.600Z,6.30
2018-04-17T05:09:44.071Z,6.30
2018-04-17T05:12:11.507Z,6.50
2018-04-17T05:14:38.936Z,6.60
2018-04-17T05:17:07.137Z,7.30
2018-04-17T05:19:34.568Z,7.30
2018-04-17T05:22:02.764Z,8.30
2018-04-17T05:24:30.200Z,8.20
2018-04-17T05:26:57.628Z,8.70
2018-04-17T09:28:44.959Z,22.70
2018-04-17T09:31:12.438Z,22.60
2018-04-17T09:33:40.426Z,22.50
2018-04-17T09:36:07.932Z,22.40
2018-04-17T09:38:36.161Z,22.30
2018-04-17T09:41:03.658Z,22.20
2018-04-17T09:43:31.891Z,22.10
2018-04-17T09:46:00.054Z,22.10
2018-04-17T09:48:27.553Z,22.00
2018-04-17T09:50:55.061Z,22.00
2018-04-17T09:53:22.557Z,21.90
2018-04-17T09:55:50.107Z,21.90
2018-04-17T09:58:17.599Z,21.90
2018-04-17T10:00:51.547Z,21.80
2018-04-17T10:03:19.020Z,21.80
2018-04-17T10:05:46.514Z,21.80
2018-04-17T10:08:14.749Z,21.80
2018-04-17T10:10:42.225Z,21.80
2018-04-17T10:13:09.708Z,21.80
2018-04-17T10:15:37.962Z,21.80
2018-04-17T10:18:05.474Z,21.80
2018-04-17T10:20:32.969Z,21.80
2018-04-17T10:23:00.449Z,21.80
2018-04-17T10:25:28.683Z,21.80
2018-04-17T10:27:56.178Z,21.80
2018-04-17T10:30:24.434Z,21.80
2018-04-17T10:32:51.906Z,21.80
2018-04-17T10:35:20.144Z,21.80
2018-04-17T10:37:47.615Z,21.80
2018-04-17T10:40:15.212Z,21.80
2018-04-17T10:42:42.696Z,21.80
2018-04-17T10:45:10.200Z,21.80
2018-04-17T10:47:37.673Z,21.80
2018-04-17T10:50:05.934Z,21.80
2018-04-17T10:52:33.422Z,21.80
2018-04-17T10:55:00.908Z,21.80
2018-04-17T10:57:28.396Z,21.80
2018-04-17T10:59:55.872Z,21.80
2018-04-17T11:02:24.692Z,21.80
2018-04-17T11:04:52.242Z,21.90
2018-04-17T11:07:19.671Z,21.80
2018-04-17T11:09:47.940Z,21.90
2018-04-17T11:12:16.233Z,21.80
2018-04-17T11:14:44.528Z,22.00
2018-04-17T11:17:12.127Z,21.90
2018-04-17T11:19:39.619Z,22.40
2018-04-17T11:22:07.909Z,22.40
2018-04-17T11:24:36.246Z,22.40
2018-04-17T11:27:03.746Z,22.40
2018-04-17T11:29:32.030Z,22.40
2018-04-17T11:31:59.516Z,22.30
2018-04-17T11:34:27.108Z,22.30
2018-04-17T11:36:54.614Z,22.30
2018-04-17T11:39:22.109Z,22.30
2018-04-17T11:41:49.612Z,22.20
2018-04-17T11:44:17.881Z,22.10
2018-04-17T11:46:46.133Z,22.10
2018-04-17T11:49:13.623Z,22.10
2018-04-17T11:51:41.180Z,22.10
2018-04-17T11:54:08.691Z,22.10
2018-04-17T11:56:36.203Z,22.10
2018-04-17T11:59:04.657Z,22.10
2018-04-17T12:01:32.909Z,22.10
2018-04-17T12:04:00.377Z,22.10
2018-04-17T12:06:27.905Z,22.10
2018-04-17T12:08:55.373Z,22.10
2018-04-17T12:11:22.943Z,22.00
2018-04-17T12:13:50.448Z,22.00
2018-04-17T12:16:18.389Z,22.00
2018-04-17T12:18:46.644Z,22.00
2018-04-17T12:21:14.131Z,22.00
2018-04-17T12:23:42.492Z,22.00
2018-04-17T12:26:10.779Z,22.00
2018-04-17T12:28:39.010Z,22.00
2018-04-17T12:31:06.505Z,22.00
2018-04-17T12:33:34.770Z,22.00
2018-04-17T12:36:02.253Z,22.00
2018-04-17T12:38:29.734Z,22.00
2018-04-17T12:40:57.314Z,22.10
2018-04-17T12:43:24.833Z,22.10
2018-04-17T12:45:52.341Z,22.00
2018-04-17T12:48:19.884Z,22.10
2018-04-17T12:50:47.386Z,22.00
2018-04-17T12:53:15.625Z,22.00
2018-04-17T12:55:43.112Z,22.00
2018-04-17T12:58:11.385Z,22.00
2018-04-17T13:00:39.657Z,22.00
2018-04-17T13:03:07.909Z,22.00
2018-04-17T13:05:35.410Z,22.00
2018-04-17T13:08:03.667Z,22.10
2018-04-17T13:10:31.933Z,22.10
2018-04-17T13:12:59.480Z,22.00
2018-04-17T13:15:26.979Z,22.10
2018-04-17T13:17:55.229Z,22.10
2018-04-17T13:20:22.721Z,22.10
2018-04-17T13:22:50.197Z,22.10
2018-04-17T13:25:17.678Z,22.10
2018-04-17T13:27:45.164Z,22.10
2018-04-17T13:30:12.663Z,22.10
2018-04-17T13:32:40.594Z,22.10
2018-04-17T13:35:08.877Z,22.10
2018-04-17T13:37:37.180Z,22.10
2018-04-17T13:40:04.664Z,22.10
2018-04-17T13:42:32.138Z,22.10
2018-04-17T13:44:59.617Z,22.10
2018-04-17T13:47:27.940Z,22.10
2018-04-17T13:49:55.424Z,22.10
2018-04-17T13:52:22.913Z,22.10
2018-04-17T13:54:50.413Z,22.10
2018-04-17T13:57:17.947Z,22.10
2018-04-17T13:59:45.473Z,22.10
2018-04-17T14:02:14.057Z,22.10
2018-04-17T14:04:41.604Z,22.10
2018-04-17T14:07:09.157Z,22.10
2018-04-17T14:09:36.645Z,22.10
2018-04-17T14:12:04.913Z,22.10
2018-04-17T14:14:34.026Z,22.10
2018-04-17T14:17:02.363Z,22.10
2018-04-17T14:19:29.877Z,22.00
2018-04-17T14:21:57.434Z,22.10
2018-04-17T14:24:24.936Z,22.10
2018-04-17T14:26:52.432Z,22.00
2018-04-17T14:29:19.908Z,22.00
2018-04-17T14:31:47.378Z,22.00
2018-04-17T14:34:14.877Z,22.00
2018-04-17T14:36:42.961Z,22.00
2018-04-17T14:39:11.205Z,21.90
2018-04-17T14:41:38.716Z,21.90
2018-04-17T14:44:06.657Z,21.90
2018-04-17T14:46:34.911Z,21.90
2018-04-17T14:49:02.411Z,21.90
2018-04-17T14:51:29.892Z,21.90
2018-04-17T14:53:58.840Z,21.90
2018-04-17T14:56:27.105Z,21.90
2018-04-17T14:58:55.198Z,21.80
2018-04-17T15:01:22.693Z,21.80
2018-04-17T15:03:50.945Z,21.80
2018-04-17T15:06:18.435Z,21.80
2018-04-17T15:08:45.924Z,21.80
2018-04-17T15:11:13.390Z,21.80
2018-04-17T15:13:41.629Z,21.80
2018-04-17T15:16:09.114Z,21.80
2018-04-17T15:18:36.600Z,21.80
2018-04-17T15:21:04.097Z,21.80
2018-04-17T15:23:32.165Z,21.80
2018-04-17T15:26:00.360Z,21.80
2018-04-17T15:28:27.845Z,21.80
2018-04-17T15:30:56.248Z,21.70
2018-04-17T15:33:23.729Z,21.70
2018-04-17T15:35:51.228Z,21.70
2018-04-17T15:38:19.488Z,21.70
2018-04-17T15:40:46.957Z,21.70
2018-04-17T15:43:15.227Z,21.70
2018-04-17T15:45:42.685Z,21.70
2018-04-17T15:48:11.797Z,21.70
2018-04-17T15:50:40.052Z,21.70
2018-04-17T15:53:07.548Z,21.70
2018-04-17T15:55:35.625Z,21.70
2018-04-17T15:58:03.869Z,21.70
2018-04-17T16:00:32.117Z,21.70
2018-04-17T16:02:59.598Z,21.70
2018-04-17T16:05:27.883Z,21.70
2018-04-17T16:07:56.110Z,21.70
2018-04-17T16:10:23.609Z,21.60
2018-04-17T16:12:51.863Z,21.70
2018-04-17T16:15:20.148Z,21.60
2018-04-17T16:17:47.636Z,21.60
2018-04-17T16:20:15.137Z,21.60
2018-04-17T16:22:42.631Z,21.60
2018-04-17T16:25:10.861Z,21.60
2018-04-17T16:27:38.333Z,21.60
2018-04-17T16:30:05.806Z,21.60
2018-04-17T16:32:34.129Z,21.60
2018-04-17T16:35:01.621Z,21.60
2018-04-17T16:37:29.079Z,21.60
2018-04-17T16:39:56.578Z,21.60
2018-04-17T16:42:24.058Z,21.60
2018-04-17T16:44:51.575Z,21.60
2018-04-17T16:47:19.070Z,21.60
2018-04-17T16:49:46.551Z,21.60
2018-04-17T16:52:14.077Z,21.60
2018-04-17T16:54:41.571Z,21.60
2018-04-17T16:57:09.068Z,21.60
2018-04-17T16:59:37.306Z,21.60
2018-04-17T17:02:04.786Z,21.50
2018-04-17T17:04:33.035Z,21.50
2018-04-17T17:07:00.536Z,21.50
2018-04-17T17:09:28.794Z,21.50
2018-04-17T17:11:56.283Z,21.50
2018-04-17T17:14:23.781Z,21.50
2018-04-17T17:16:51.301Z,21.50
2018-04-17T17:19:18.797Z,21.50
2018-04-17T17:21:46.333Z,21.50
2018-04-17T17:24:14.602Z,21.50
2018-04-17T17:26:42.079Z,21.50
2018-04-17T17:29:09.569Z,21.50
2018-04-17T17:31:37.060Z,21.50
2018-04-17T17:34:04.541Z,21.50
2018-04-17T17:36:32.013Z,21.50
2018-04-17T17:38:59.513Z,21.50
2018-04-17T17:41:27.764Z,21.40
2018-04-17T17:43:55.349Z,21.40
2018-04-17T17:46:23.581Z,21.40
2018-04-17T17:48:51.072Z,21.40
2018-04-17T17:51:19.328Z,21.40
2018-04-17T17:53:46.845Z,21.40
2018-04-17T17:56:14.325Z,21.40
2018-04-17T17:58:42.280Z,21.40
2018-04-17T18:01:09.785Z,21.40
2018-04-17T18:03:38.019Z,21.40
2018-04-17T18:06:05.513Z,21.40
2018-04-17T18:08:32.988Z,21.40
2018-04-17T18:11:01.249Z,21.30
2018-04-17T18:13:28.757Z,21.30
2018-04-17T18:15:56.681Z,21.30
2018-04-17T18:18:24.953Z,21.30
2018-04-17T18:20:53.197Z,21.30
2018-04-17T18:23:20.687Z,21.30
2018-04-17T18:25:49.041Z,21.30
2018-04-17T18:28:16.516Z,21.30
2018-04-17T18:30:44.757Z,21.30
2018-04-17T18:33:12.248Z,21.30
2018-04-17T18:35:40.505Z,21.30
2018-04-17T18:38:08.633Z,21.30
2018-04-17T18:40:36.145Z,21.30
2018-04-17T18:43:03.629Z,21.30
2018-04-17T18:45:31.103Z,21.30
2018-04-17T18:47:58.591Z,21.20
2018-04-17T18:50:26.073Z,21.20
2018-04-17T18:52:53.731Z,21.20
2018-04-17T18:55:21.228Z,21.20
2018-04-17T18:57:48.710Z,21.20
2018-04-17T19:00:16.172Z,21.20
2018-04-17T19:02:43.794Z,21.20
2018-04-17T19:05:11.303Z,21.20
2018-04-17T19:07:38.906Z,21.20
2018-04-17T19:10:07.983Z,21.20
2018-04-17T19:12:36.249Z,21.20
2018-04-17T19:15:03.742Z,21.10
2018-04-17T19:17:31.241Z,21.20
2018-04-17T19:19:58.762Z,21.20
2018-04-17T19:22:26.297Z,21.20
2018-04-17T19:24:54.551Z,21.20
2018-04-17T19:27:22.052Z,21.10
2018-04-17T19:29:49.533Z,21.10
2018-04-17T19:32:17.033Z,21.10
2018-04-17T19:34:44.548Z,21.10
2018-04-17T19:37:12.028Z,21.10
2018-04-17T19:39:39.571Z,21.10
2018-04-17T19:42:07.078Z,21.10
2018-04-17T19:44:35.382Z,21.10
2018-04-17T19:47:02.886Z,21.10
2018-04-17T19:49:30.397Z,21.10
2018-04-17T19:51:57.895Z,21.10
2018-04-17T19:54:26.114Z,21.10
2018-04-17T19:56:53.661Z,21.10
2018-04-17T19:59:21.909Z,21.10
2018-04-17T20:01:49.390Z,21.00
2018-04-17T20:21:36.291Z,21.00
2018-04-17T20:24:03.817Z,21.00
2018-04-17T20:26:31.372Z,21.00
2018-04-17T20:28:58.934Z,21.00
2018-04-17T20:31:26.411Z,21.00
2018-04-17T20:33:53.893Z,21.00
2018-04-17T20:36:22.129Z,21.00
2018-04-17T20:38:49.596Z,21.00
2018-04-17T20:41:17.093Z,20.90
2018-04-17T20:43:45.364Z,21.00
2018-04-17T20:46:13.615Z,20.90
2018-04-17T20:48:41.189Z,20.90
2018-04-17T20:51:09.436Z,21.00
2018-04-17T20:53:36.924Z,20.90
2018-04-17T20:56:05.154Z,20.90
2018-04-17T20:58:32.633Z,20.90
2018-04-17T21:01:00.121Z,20.90
2018-04-17T21:03:28.377Z,20.90
2018-04-17T21:05:56.650Z,20.90
2018-04-17T21:08:24.108Z,20.90
2018-04-17T21:10:52.406Z,20.90
2018-04-17T21:13:20.665Z,20.90
2018-04-17T21:15:48.745Z,20.90
2018-04-17T21:18:16.969Z,20.90
2018-04-17T21:20:44.441Z,20.90
2018-04-17T21:23:11.956Z,20.90
2018-04-17T21:25:39.440Z,20.90
2018-04-17T21:28:07.782Z,20.90
2018-04-17T21:30:35.369Z,20.90
2018-04-17T21:33:02.815Z,20.90
2018-04-17T21:35:31.072Z,20.90
2018-04-17T21:37:58.561Z,20.90
2018-04-17T21:40:26.025Z,20.90
2018-04-17T21:42:53.553Z,20.90
2018-04-17T21:45:21.037Z,20.90
2018-04-17T21:47:50.136Z,20.80
2018-04-17T21:50:17.640Z,20.90
2018-04-17T21:52:45.894Z,20.90
2018-04-17T21:55:13.406Z,20.80
2018-04-17T21:57:40.928Z,20.90
2018-04-17T22:00:09.622Z,20.90
2018-04-17T22:02:37.856Z,20.80
2018-04-17T22:05:05.451Z,20.80
2018-04-17T22:07:34.367Z,20.80
2018-04-17T22:10:01.842Z,20.80
2018-04-17T22:12:29.337Z,20.80
2018-04-17T22:14:57.611Z,20.80
2018-04-17T22:17:25.939Z,20.80
2018-04-17T22:19:53.452Z,20.80
2018-04-17T22:22:20.936Z,20.80
2018-04-17T22:24:48.447Z,20.80
2018-04-17T22:27:15.928Z,20.80
2018-04-17T22:29:44.176Z,20.80
2018-04-17T22:32:11.677Z,20.80
2018-04-17T22:34:39.174Z,20.80
2018-04-17T22:37:06.682Z,20.80
2018-04-17T22:39:34.934Z,20.80
2018-04-17T22:42:02.433Z,20.80
2018-04-17T22:44:29.948Z,20.80
2018-04-17T22:46:58.183Z,20.80
2018-04-17T22:49:25.669Z,20.80
2018-04-17T22:51:53.142Z,20.80
2018-04-17T22:54:20.626Z,20.80
2018-04-17T22:56:48.104Z,20.80
2018-04-17T22:59:15.624Z,20.80
2018-04-17T23:01:43.849Z,20.70
2018-04-17T23:04:11.326Z,20.70
2018-04-17T23:06:39.500Z,20.70
2018-04-17T23:09:06.981Z,20.70
2018-04-17T23:11:35.243Z,20.70
2018-04-17T23:14:02.758Z,20.70
2018-04-17T23:16:30.684Z,20.70
2018-04-17T23:18:58.933Z,20.70
2018-04-17T23:21:27.140Z,20.70
2018-04-17T23:23:55.414Z,20.70
2018-04-17T23:26:23.645Z,20.70
2018-04-17T23:28:51.130Z,20.70
2018-04-17T23:31:18.625Z,20.70
2018-04-17T23:33:46.092Z,20.70
2018-04-17T23:36:13.573Z,20.70
2018-04-17T23:38:41.127Z,20.70
2018-04-17T23:41:08.683Z,20.70
2018-04-17T23:43:36.276Z,20.70
2018-04-17T23:46:03.845Z,20.70
2018-04-17T23:48:31.376Z,20.70
2018-04-17T23:50:58.867Z,20.70
2018-04-17T23:53:27.119Z,20.70
2018-04-17T23:55:54.598Z,20.70
2018-04-17T23:58:22.850Z,20.60
